sensor_id;sensor_type;location;lat;lon;timestamp;P1;durP1;ratioP1;P2;durP2;ratioP2
8944;SDS011;4507;40.232;29.132;2022-12-07T00:00:03;85.17;;;61.83;;
8944;SDS011;4507;40.232;29.132;2022-12-07T00:02:52;84.50;;;61.23;;
8944;SDS011;4507;40.232;29.132;2022-12-07T00:05:20;78.57;;;57.97;;
8944;SDS011;4507;40.232;29.132;2022-12-07T00:07:49;81.83;;;62.27;;
8944;SDS011;4507;40.232;29.132;2022-12-07T00:10:20;81.00;;;60.30;;
8944;SDS011;4507;40.232;29.132;2022-12-07T00:12:49;80.37;;;61.63;;
8944;SDS011;4507;40.232;29.132;2022-12-07T00:15:18;71.50;;;49.97;;
8944;SDS011;4507;40.232;29.132;2022-12-07T00:17:46;90.87;;;62.80;;
8944;SDS011;4507;40.232;29.132;2022-12-07T00:20:16;90.20;;;65.67;;
8944;SDS011;4507;40.232;29.132;2022-12-07T00:22:44;80.20;;;60.50;;
8944;SDS011;4507;40.232;29.132;2022-12-07T00:25:13;82.57;;;60.17;;
8944;SDS011;4507;40.232;29.132;2022-12-07T00:27:44;90.03;;;62.03;;
8944;SDS011;4507;40.232;29.132;2022-12-07T00:30:13;97.70;;;60.73;;
8944;SDS011;4507;40.232;29.132;2022-12-07T00:32:42;73.57;;;57.87;;
8944;SDS011;4507;40.232;29.132;2022-12-07T00:35:11;73.80;;;56.13;;
8944;SDS011;4507;40.232;29.132;2022-12-07T00:37:41;69.20;;;55.53;;
8944;SDS011;4507;40.232;29.132;2022-12-07T00:40:10;66.57;;;54.23;;
8944;SDS011;4507;40.232;29.132;2022-12-07T00:42:40;65.20;;;52.97;;
8944;SDS011;4507;40.232;29.132;2022-12-07T00:45:10;63.07;;;50.20;;
8944;SDS011;4507;40.232;29.132;2022-12-07T00:47:39;65.63;;;54.80;;
8944;SDS011;4507;40.232;29.132;2022-12-07T00:50:08;74.50;;;57.53;;
8944;SDS011;4507;40.232;29.132;2022-12-07T00:52:37;79.27;;;53.87;;
8944;SDS011;4507;40.232;29.132;2022-12-07T00:55:06;70.00;;;53.93;;
8944;SDS011;4507;40.232;29.132;2022-12-07T00:57:36;67.37;;;55.17;;
8944;SDS011;4507;40.232;29.132;2022-12-07T01:00:05;65.03;;;53.37;;
8944;SDS011;4507;40.232;29.132;2022-12-07T01:02:36;62.90;;;52.60;;
8944;SDS011;4507;40.232;29.132;2022-12-07T01:05:06;69.13;;;54.33;;
8944;SDS011;4507;40.232;29.132;2022-12-07T01:07:37;64.57;;;54.17;;
8944;SDS011;4507;40.232;29.132;2022-12-07T01:10:06;63.47;;;52.07;;
8944;SDS011;4507;40.232;29.132;2022-12-07T01:12:36;70.77;;;54.47;;
8944;SDS011;4507;40.232;29.132;2022-12-07T01:15:05;73.40;;;56.87;;
8944;SDS011;4507;40.232;29.132;2022-12-07T01:17:37;80.77;;;62.83;;
8944;SDS011;4507;40.232;29.132;2022-12-07T01:20:24;82.10;;;61.97;;
8944;SDS011;4507;40.232;29.132;2022-12-07T01:22:53;80.40;;;61.63;;
8944;SDS011;4507;40.232;29.132;2022-12-07T01:25:22;74.57;;;58.47;;
8944;SDS011;4507;40.232;29.132;2022-12-07T01:27:51;71.17;;;55.17;;
8944;SDS011;4507;40.232;29.132;2022-12-07T01:30:20;71.20;;;55.30;;
8944;SDS011;4507;40.232;29.132;2022-12-07T01:32:51;67.67;;;52.90;;
8944;SDS011;4507;40.232;29.132;2022-12-07T01:35:20;73.37;;;55.53;;
8944;SDS011;4507;40.232;29.132;2022-12-07T01:37:49;70.10;;;54.77;;
8944;SDS011;4507;40.232;29.132;2022-12-07T01:40:18;87.73;;;55.93;;
8944;SDS011;4507;40.232;29.132;2022-12-07T01:42:47;78.63;;;59.03;;
8944;SDS011;4507;40.232;29.132;2022-12-07T01:48:09;84.93;;;63.03;;
8944;SDS011;4507;40.232;29.132;2022-12-07T01:50:41;86.17;;;60.40;;
8944;SDS011;4507;40.232;29.132;2022-12-07T01:53:13;85.37;;;60.27;;
8944;SDS011;4507;40.232;29.132;2022-12-07T01:55:43;78.53;;;58.53;;
8944;SDS011;4507;40.232;29.132;2022-12-07T01:58:15;78.13;;;59.07;;
8944;SDS011;4507;40.232;29.132;2022-12-07T02:00:45;71.93;;;55.07;;
8944;SDS011;4507;40.232;29.132;2022-12-07T02:03:16;74.03;;;57.73;;
8944;SDS011;4507;40.232;29.132;2022-12-07T02:05:50;81.57;;;59.80;;
8944;SDS011;4507;40.232;29.132;2022-12-07T02:08:21;79.70;;;55.03;;
8944;SDS011;4507;40.232;29.132;2022-12-07T02:10:50;87.93;;;60.13;;
8944;SDS011;4507;40.232;29.132;2022-12-07T02:13:24;73.77;;;56.57;;
8944;SDS011;4507;40.232;29.132;2022-12-07T02:16:19;74.10;;;56.70;;
8944;SDS011;4507;40.232;29.132;2022-12-07T02:18:58;72.57;;;57.10;;
8944;SDS011;4507;40.232;29.132;2022-12-07T02:21:50;80.57;;;57.03;;
8944;SDS011;4507;40.232;29.132;2022-12-07T02:24:30;73.20;;;56.50;;
8944;SDS011;4507;40.232;29.132;2022-12-07T02:30:10;83.57;;;62.73;;
8944;SDS011;4507;40.232;29.132;2022-12-07T02:32:43;79.73;;;61.43;;
8944;SDS011;4507;40.232;29.132;2022-12-07T02:35:18;82.93;;;59.80;;
8944;SDS011;4507;40.232;29.132;2022-12-07T02:37:52;84.47;;;63.40;;
8944;SDS011;4507;40.232;29.132;2022-12-07T02:40:31;89.17;;;64.10;;
8944;SDS011;4507;40.232;29.132;2022-12-07T02:43:03;95.87;;;67.00;;
8944;SDS011;4507;40.232;29.132;2022-12-07T02:45:38;101.07;;;66.93;;
8944;SDS011;4507;40.232;29.132;2022-12-07T02:48:10;98.60;;;70.77;;
8944;SDS011;4507;40.232;29.132;2022-12-07T02:50:43;94.90;;;72.37;;
8944;SDS011;4507;40.232;29.132;2022-12-07T02:53:29;100.77;;;75.23;;
8944;SDS011;4507;40.232;29.132;2022-12-07T02:56:00;105.43;;;75.67;;
8944;SDS011;4507;40.232;29.132;2022-12-07T02:58:45;86.00;;;66.53;;
8944;SDS011;4507;40.232;29.132;2022-12-07T03:01:27;136.13;;;72.80;;
8944;SDS011;4507;40.232;29.132;2022-12-07T03:04:02;122.13;;;76.97;;
8944;SDS011;4507;40.232;29.132;2022-12-07T03:06:42;113.87;;;72.90;;
8944;SDS011;4507;40.232;29.132;2022-12-07T03:09:19;118.27;;;79.03;;
8944;SDS011;4507;40.232;29.132;2022-12-07T03:11:55;114.97;;;79.47;;
8944;SDS011;4507;40.232;29.132;2022-12-07T03:14:30;115.93;;;78.10;;
8944;SDS011;4507;40.232;29.132;2022-12-07T03:17:04;99.63;;;69.37;;
8944;SDS011;4507;40.232;29.132;2022-12-07T03:19:36;97.77;;;69.13;;
8944;SDS011;4507;40.232;29.132;2022-12-07T03:22:07;100.47;;;70.53;;
8944;SDS011;4507;40.232;29.132;2022-12-07T03:24:40;92.80;;;66.73;;
8944;SDS011;4507;40.232;29.132;2022-12-07T03:27:11;85.67;;;59.67;;
8944;SDS011;4507;40.232;29.132;2022-12-07T03:29:45;88.17;;;63.00;;
8944;SDS011;4507;40.232;29.132;2022-12-07T03:32:20;99.13;;;62.67;;
8944;SDS011;4507;40.232;29.132;2022-12-07T03:34:55;109.43;;;64.57;;
8944;SDS011;4507;40.232;29.132;2022-12-07T03:37:29;93.07;;;60.03;;
8944;SDS011;4507;40.232;29.132;2022-12-07T03:40:03;120.23;;;61.73;;
8944;SDS011;4507;40.232;29.132;2022-12-07T03:42:38;134.50;;;67.10;;
8944;SDS011;4507;40.232;29.132;2022-12-07T03:45:08;116.70;;;64.70;;
8944;SDS011;4507;40.232;29.132;2022-12-07T03:47:41;108.30;;;73.30;;
8944;SDS011;4507;40.232;29.132;2022-12-07T03:50:15;112.63;;;75.37;;
8944;SDS011;4507;40.232;29.132;2022-12-07T03:52:52;90.03;;;63.70;;
8944;SDS011;4507;40.232;29.132;2022-12-07T03:55:25;124.97;;;82.20;;
8944;SDS011;4507;40.232;29.132;2022-12-07T03:57:56;119.53;;;82.83;;
8944;SDS011;4507;40.232;29.132;2022-12-07T04:00:28;119.30;;;78.67;;
8944;SDS011;4507;40.232;29.132;2022-12-07T04:03:00;107.67;;;76.73;;
8944;SDS011;4507;40.232;29.132;2022-12-07T04:05:29;114.40;;;78.90;;
8944;SDS011;4507;40.232;29.132;2022-12-07T04:07:58;124.03;;;85.30;;
8944;SDS011;4507;40.232;29.132;2022-12-07T04:10:27;130.47;;;87.67;;
8944;SDS011;4507;40.232;29.132;2022-12-07T04:12:56;130.33;;;83.80;;
8944;SDS011;4507;40.232;29.132;2022-12-07T04:15:25;138.57;;;85.10;;
8944;SDS011;4507;40.232;29.132;2022-12-07T04:17:54;116.17;;;78.53;;
8944;SDS011;4507;40.232;29.132;2022-12-07T04:20:24;139.20;;;87.80;;
8944;SDS011;4507;40.232;29.132;2022-12-07T04:22:53;155.30;;;89.07;;
8944;SDS011;4507;40.232;29.132;2022-12-07T04:25:22;133.70;;;80.63;;
8944;SDS011;4507;40.232;29.132;2022-12-07T04:27:51;120.90;;;76.27;;
8944;SDS011;4507;40.232;29.132;2022-12-07T04:30:21;105.83;;;71.80;;
8944;SDS011;4507;40.232;29.132;2022-12-07T04:32:49;109.23;;;66.87;;
8944;SDS011;4507;40.232;29.132;2022-12-07T04:35:18;105.10;;;67.53;;
8944;SDS011;4507;40.232;29.132;2022-12-07T04:37:49;115.53;;;63.33;;
8944;SDS011;4507;40.232;29.132;2022-12-07T04:40:21;135.97;;;95.03;;
8944;SDS011;4507;40.232;29.132;2022-12-07T04:42:57;105.50;;;73.00;;
8944;SDS011;4507;40.232;29.132;2022-12-07T04:45:26;109.30;;;69.13;;
8944;SDS011;4507;40.232;29.132;2022-12-07T04:47:55;103.03;;;64.27;;
8944;SDS011;4507;40.232;29.132;2022-12-07T04:50:23;93.90;;;62.67;;
8944;SDS011;4507;40.232;29.132;2022-12-07T04:52:54;108.67;;;63.33;;
8944;SDS011;4507;40.232;29.132;2022-12-07T04:55:22;112.40;;;61.63;;
8944;SDS011;4507;40.232;29.132;2022-12-07T04:57:51;125.53;;;58.63;;
8944;SDS011;4507;40.232;29.132;2022-12-07T05:00:20;133.70;;;60.43;;
8944;SDS011;4507;40.232;29.132;2022-12-07T05:02:49;113.90;;;59.50;;
8944;SDS011;4507;40.232;29.132;2022-12-07T05:05:18;106.77;;;67.87;;
8944;SDS011;4507;40.232;29.132;2022-12-07T05:07:47;96.73;;;61.23;;
8944;SDS011;4507;40.232;29.132;2022-12-07T05:10:17;107.47;;;61.90;;
8944;SDS011;4507;40.232;29.132;2022-12-07T05:12:46;110.57;;;68.73;;
8944;SDS011;4507;40.232;29.132;2022-12-07T05:15:15;113.53;;;66.63;;
8944;SDS011;4507;40.232;29.132;2022-12-07T05:17:44;94.97;;;59.50;;
8944;SDS011;4507;40.232;29.132;2022-12-07T05:20:13;104.00;;;61.33;;
8944;SDS011;4507;40.232;29.132;2022-12-07T05:22:42;105.73;;;57.73;;
8944;SDS011;4507;40.232;29.132;2022-12-07T05:25:11;172.53;;;62.97;;
8944;SDS011;4507;40.232;29.132;2022-12-07T05:27:41;104.50;;;57.27;;
8944;SDS011;4507;40.232;29.132;2022-12-07T05:30:11;96.97;;;54.17;;
8944;SDS011;4507;40.232;29.132;2022-12-07T05:32:40;77.17;;;54.30;;
8944;SDS011;4507;40.232;29.132;2022-12-07T05:35:09;103.90;;;56.17;;
8944;SDS011;4507;40.232;29.132;2022-12-07T05:37:38;94.87;;;54.83;;
8944;SDS011;4507;40.232;29.132;2022-12-07T05:40:07;100.90;;;57.17;;
8944;SDS011;4507;40.232;29.132;2022-12-07T05:42:37;136.37;;;57.27;;
8944;SDS011;4507;40.232;29.132;2022-12-07T05:45:09;103.33;;;57.83;;
8944;SDS011;4507;40.232;29.132;2022-12-07T05:47:38;91.90;;;59.50;;
8944;SDS011;4507;40.232;29.132;2022-12-07T05:50:08;88.13;;;56.77;;
8944;SDS011;4507;40.232;29.132;2022-12-07T05:52:37;118.83;;;57.53;;
8944;SDS011;4507;40.232;29.132;2022-12-07T05:55:06;95.77;;;56.43;;
8944;SDS011;4507;40.232;29.132;2022-12-07T05:57:35;123.27;;;58.83;;
8944;SDS011;4507;40.232;29.132;2022-12-07T06:00:05;86.63;;;57.43;;
8944;SDS011;4507;40.232;29.132;2022-12-07T06:02:37;101.73;;;58.07;;
8944;SDS011;4507;40.232;29.132;2022-12-07T06:05:07;78.60;;;54.93;;
8944;SDS011;4507;40.232;29.132;2022-12-07T06:07:36;86.90;;;56.20;;
8944;SDS011;4507;40.232;29.132;2022-12-07T06:10:05;97.33;;;56.57;;
8944;SDS011;4507;40.232;29.132;2022-12-07T06:12:35;104.03;;;58.53;;
8944;SDS011;4507;40.232;29.132;2022-12-07T06:15:06;99.93;;;55.43;;
8944;SDS011;4507;40.232;29.132;2022-12-07T06:17:37;114.33;;;57.03;;
8944;SDS011;4507;40.232;29.132;2022-12-07T06:20:06;94.17;;;55.70;;
8944;SDS011;4507;40.232;29.132;2022-12-07T06:22:35;100.13;;;56.30;;
8944;SDS011;4507;40.232;29.132;2022-12-07T06:25:04;111.27;;;56.87;;
8944;SDS011;4507;40.232;29.132;2022-12-07T06:27:34;101.07;;;58.83;;
8944;SDS011;4507;40.232;29.132;2022-12-07T06:30:04;150.17;;;61.97;;
8944;SDS011;4507;40.232;29.132;2022-12-07T06:32:37;120.33;;;57.67;;
8944;SDS011;4507;40.232;29.132;2022-12-07T06:35:06;97.97;;;59.03;;
8944;SDS011;4507;40.232;29.132;2022-12-07T06:37:35;91.17;;;58.57;;
8944;SDS011;4507;40.232;29.132;2022-12-07T06:40:05;121.43;;;61.53;;
8944;SDS011;4507;40.232;29.132;2022-12-07T06:42:35;145.50;;;64.00;;
8944;SDS011;4507;40.232;29.132;2022-12-07T06:45:04;106.70;;;58.73;;
8944;SDS011;4507;40.232;29.132;2022-12-07T06:47:33;104.20;;;61.07;;
8944;SDS011;4507;40.232;29.132;2022-12-07T06:50:11;136.37;;;60.90;;
8944;SDS011;4507;40.232;29.132;2022-12-07T06:52:40;114.97;;;59.70;;
8944;SDS011;4507;40.232;29.132;2022-12-07T06:55:09;143.87;;;66.43;;
8944;SDS011;4507;40.232;29.132;2022-12-07T06:57:38;144.73;;;64.03;;
8944;SDS011;4507;40.232;29.132;2022-12-07T07:00:07;110.83;;;61.77;;
8944;SDS011;4507;40.232;29.132;2022-12-07T07:02:45;99.50;;;60.73;;
8944;SDS011;4507;40.232;29.132;2022-12-07T07:05:16;111.30;;;63.83;;
8944;SDS011;4507;40.232;29.132;2022-12-07T07:07:45;86.23;;;63.03;;
8944;SDS011;4507;40.232;29.132;2022-12-07T07:10:34;125.97;;;65.07;;
8944;SDS011;4507;40.232;29.132;2022-12-07T07:13:04;121.90;;;63.07;;
8944;SDS011;4507;40.232;29.132;2022-12-07T07:15:33;107.27;;;62.07;;
8944;SDS011;4507;40.232;29.132;2022-12-07T07:18:02;118.13;;;63.93;;
8944;SDS011;4507;40.232;29.132;2022-12-07T07:20:35;114.20;;;62.47;;
8944;SDS011;4507;40.232;29.132;2022-12-07T07:23:04;141.80;;;63.40;;
8944;SDS011;4507;40.232;29.132;2022-12-07T07:25:33;103.77;;;62.80;;
8944;SDS011;4507;40.232;29.132;2022-12-07T07:28:02;120.17;;;62.20;;
8944;SDS011;4507;40.232;29.132;2022-12-07T07:30:32;112.30;;;63.67;;
8944;SDS011;4507;40.232;29.132;2022-12-07T07:33:02;160.13;;;64.63;;
8944;SDS011;4507;40.232;29.132;2022-12-07T07:35:32;116.40;;;61.77;;
8944;SDS011;4507;40.232;29.132;2022-12-07T07:38:03;114.70;;;62.00;;
8944;SDS011;4507;40.232;29.132;2022-12-07T07:40:32;129.23;;;64.80;;
8944;SDS011;4507;40.232;29.132;2022-12-07T07:43:01;130.07;;;63.97;;
8944;SDS011;4507;40.232;29.132;2022-12-07T07:45:30;129.37;;;63.70;;
8944;SDS011;4507;40.232;29.132;2022-12-07T07:47:59;122.40;;;62.07;;
8944;SDS011;4507;40.232;29.132;2022-12-07T07:50:28;125.60;;;75.33;;
8944;SDS011;4507;40.232;29.132;2022-12-07T07:52:59;129.87;;;75.53;;
8944;SDS011;4507;40.232;29.132;2022-12-07T07:55:28;132.97;;;70.53;;
8944;SDS011;4507;40.232;29.132;2022-12-07T07:57:57;157.03;;;76.37;;
8944;SDS011;4507;40.232;29.132;2022-12-07T08:00:26;131.60;;;70.50;;
8944;SDS011;4507;40.232;29.132;2022-12-07T08:02:55;137.07;;;69.10;;
8944;SDS011;4507;40.232;29.132;2022-12-07T08:05:26;135.10;;;62.23;;
8944;SDS011;4507;40.232;29.132;2022-12-07T08:07:54;135.57;;;63.00;;
8944;SDS011;4507;40.232;29.132;2022-12-07T08:10:26;119.20;;;61.13;;
8944;SDS011;4507;40.232;29.132;2022-12-07T08:12:55;130.67;;;62.73;;
8944;SDS011;4507;40.232;29.132;2022-12-07T08:15:41;134.60;;;63.13;;
8944;SDS011;4507;40.232;29.132;2022-12-07T08:18:12;151.40;;;66.13;;
8944;SDS011;4507;40.232;29.132;2022-12-07T08:20:42;124.47;;;65.57;;
8944;SDS011;4507;40.232;29.132;2022-12-07T08:23:13;113.37;;;61.97;;
8944;SDS011;4507;40.232;29.132;2022-12-07T08:25:43;104.80;;;60.07;;
8944;SDS011;4507;40.232;29.132;2022-12-07T08:28:12;123.60;;;62.17;;
8944;SDS011;4507;40.232;29.132;2022-12-07T08:30:41;139.90;;;65.63;;
8944;SDS011;4507;40.232;29.132;2022-12-07T08:33:10;152.10;;;63.67;;
8944;SDS011;4507;40.232;29.132;2022-12-07T08:35:39;107.60;;;62.23;;
8944;SDS011;4507;40.232;29.132;2022-12-07T08:38:08;106.30;;;64.20;;
8944;SDS011;4507;40.232;29.132;2022-12-07T08:40:37;114.67;;;66.17;;
8944;SDS011;4507;40.232;29.132;2022-12-07T08:43:08;178.83;;;69.23;;
8944;SDS011;4507;40.232;29.132;2022-12-07T08:45:36;104.47;;;59.37;;
8944;SDS011;4507;40.232;29.132;2022-12-07T08:48:09;95.20;;;60.10;;
8944;SDS011;4507;40.232;29.132;2022-12-07T08:50:40;87.30;;;62.00;;
8944;SDS011;4507;40.232;29.132;2022-12-07T08:53:15;82.80;;;61.40;;
8944;SDS011;4507;40.232;29.132;2022-12-07T08:55:44;87.10;;;57.23;;
8944;SDS011;4507;40.232;29.132;2022-12-07T08:58:15;111.63;;;59.07;;
8944;SDS011;4507;40.232;29.132;2022-12-07T09:00:44;94.67;;;57.33;;
8944;SDS011;4507;40.232;29.132;2022-12-07T09:03:13;96.87;;;57.00;;
8944;SDS011;4507;40.232;29.132;2022-12-07T09:05:42;92.33;;;55.00;;
8944;SDS011;4507;40.232;29.132;2022-12-07T09:08:11;93.30;;;54.70;;
8944;SDS011;4507;40.232;29.132;2022-12-07T09:10:41;103.73;;;58.60;;
8944;SDS011;4507;40.232;29.132;2022-12-07T09:13:09;114.57;;;56.40;;
8944;SDS011;4507;40.232;29.132;2022-12-07T09:15:40;123.83;;;56.70;;
8944;SDS011;4507;40.232;29.132;2022-12-07T09:18:09;72.90;;;50.63;;
8944;SDS011;4507;40.232;29.132;2022-12-07T09:20:38;119.43;;;55.40;;
8944;SDS011;4507;40.232;29.132;2022-12-07T09:23:06;101.80;;;53.00;;
8944;SDS011;4507;40.232;29.132;2022-12-07T09:25:36;71.87;;;50.37;;
8944;SDS011;4507;40.232;29.132;2022-12-07T09:28:05;74.57;;;51.23;;
8944;SDS011;4507;40.232;29.132;2022-12-07T09:30:34;92.10;;;51.97;;
8944;SDS011;4507;40.232;29.132;2022-12-07T09:33:30;110.50;;;51.67;;
8944;SDS011;4507;40.232;29.132;2022-12-07T09:36:03;78.83;;;50.07;;
8944;SDS011;4507;40.232;29.132;2022-12-07T09:38:33;87.80;;;52.03;;
8944;SDS011;4507;40.232;29.132;2022-12-07T09:41:04;85.67;;;51.03;;
8944;SDS011;4507;40.232;29.132;2022-12-07T09:43:34;98.47;;;53.10;;
8944;SDS011;4507;40.232;29.132;2022-12-07T09:46:08;81.87;;;51.90;;
8944;SDS011;4507;40.232;29.132;2022-12-07T09:48:43;104.00;;;53.73;;
8944;SDS011;4507;40.232;29.132;2022-12-07T09:51:13;70.70;;;56.40;;
8944;SDS011;4507;40.232;29.132;2022-12-07T09:53:50;87.23;;;53.10;;
8944;SDS011;4507;40.232;29.132;2022-12-07T09:56:21;86.03;;;53.43;;
8944;SDS011;4507;40.232;29.132;2022-12-07T09:58:52;78.67;;;57.97;;
8944;SDS011;4507;40.232;29.132;2022-12-07T10:01:27;76.27;;;59.40;;
8944;SDS011;4507;40.232;29.132;2022-12-07T10:04:05;87.13;;;58.40;;
8944;SDS011;4507;40.232;29.132;2022-12-07T10:06:40;82.60;;;55.27;;
8944;SDS011;4507;40.232;29.132;2022-12-07T10:09:10;90.70;;;58.63;;
8944;SDS011;4507;40.232;29.132;2022-12-07T10:11:59;94.00;;;60.43;;
8944;SDS011;4507;40.232;29.132;2022-12-07T10:14:32;102.83;;;57.27;;
8944;SDS011;4507;40.232;29.132;2022-12-07T10:17:30;75.57;;;56.27;;
8944;SDS011;4507;40.232;29.132;2022-12-07T10:20:15;86.97;;;58.10;;
8944;SDS011;4507;40.232;29.132;2022-12-07T10:22:56;84.37;;;55.50;;
8944;SDS011;4507;40.232;29.132;2022-12-07T10:25:31;79.83;;;53.50;;
8944;SDS011;4507;40.232;29.132;2022-12-07T10:28:03;103.23;;;53.57;;
8944;SDS011;4507;40.232;29.132;2022-12-07T10:30:47;81.47;;;52.53;;
8944;SDS011;4507;40.232;29.132;2022-12-07T10:33:34;82.07;;;52.17;;
8944;SDS011;4507;40.232;29.132;2022-12-07T10:36:17;77.73;;;52.77;;
8944;SDS011;4507;40.232;29.132;2022-12-07T10:38:48;88.57;;;52.47;;
8944;SDS011;4507;40.232;29.132;2022-12-07T10:41:19;75.40;;;51.80;;
8944;SDS011;4507;40.232;29.132;2022-12-07T10:43:48;78.83;;;49.27;;
8944;SDS011;4507;40.232;29.132;2022-12-07T10:52:34;66.77;;;48.43;;
8944;SDS011;4507;40.232;29.132;2022-12-07T10:55:25;70.67;;;48.50;;
8944;SDS011;4507;40.232;29.132;2022-12-07T10:58:07;71.10;;;51.47;;
8944;SDS011;4507;40.232;29.132;2022-12-07T11:00:57;109.77;;;54.97;;
8944;SDS011;4507;40.232;29.132;2022-12-07T11:03:44;93.33;;;67.30;;
8944;SDS011;4507;40.232;29.132;2022-12-07T11:06:24;93.73;;;56.90;;
8944;SDS011;4507;40.232;29.132;2022-12-07T11:09:08;80.83;;;50.17;;
8944;SDS011;4507;40.232;29.132;2022-12-07T11:12:14;72.20;;;47.80;;
8944;SDS011;4507;40.232;29.132;2022-12-07T11:14:51;70.53;;;49.03;;
8944;SDS011;4507;40.232;29.132;2022-12-07T11:17:26;70.43;;;49.20;;
8944;SDS011;4507;40.232;29.132;2022-12-07T11:20:05;83.37;;;51.07;;
8944;SDS011;4507;40.232;29.132;2022-12-07T11:22:54;176.77;;;57.93;;
8944;SDS011;4507;40.232;29.132;2022-12-07T11:25:32;57.90;;;49.80;;
8944;SDS011;4507;40.232;29.132;2022-12-07T11:28:11;65.13;;;49.13;;
8944;SDS011;4507;40.232;29.132;2022-12-07T11:30:52;80.10;;;51.40;;
8944;SDS011;4507;40.232;29.132;2022-12-07T11:33:31;65.60;;;49.07;;
8944;SDS011;4507;40.232;29.132;2022-12-07T11:36:07;66.87;;;48.00;;
8944;SDS011;4507;40.232;29.132;2022-12-07T11:38:53;65.70;;;48.00;;
8944;SDS011;4507;40.232;29.132;2022-12-07T11:41:29;99.70;;;50.27;;
8944;SDS011;4507;40.232;29.132;2022-12-07T11:44:05;68.63;;;44.33;;
8944;SDS011;4507;40.232;29.132;2022-12-07T11:46:40;58.77;;;40.27;;
8944;SDS011;4507;40.232;29.132;2022-12-07T11:49:14;52.83;;;36.87;;
8944;SDS011;4507;40.232;29.132;2022-12-07T11:51:52;51.93;;;39.60;;
8944;SDS011;4507;40.232;29.132;2022-12-07T11:54:26;80.03;;;52.20;;
8944;SDS011;4507;40.232;29.132;2022-12-07T11:57:02;66.47;;;55.47;;
8944;SDS011;4507;40.232;29.132;2022-12-07T11:59:36;117.80;;;50.67;;
8944;SDS011;4507;40.232;29.132;2022-12-07T12:02:11;113.20;;;47.80;;
8944;SDS011;4507;40.232;29.132;2022-12-07T12:05:02;71.63;;;44.13;;
8944;SDS011;4507;40.232;29.132;2022-12-07T12:07:41;69.10;;;42.53;;
8944;SDS011;4507;40.232;29.132;2022-12-07T12:10:35;59.60;;;35.67;;
8944;SDS011;4507;40.232;29.132;2022-12-07T12:19:30;87.00;;;43.67;;
8944;SDS011;4507;40.232;29.132;2022-12-07T12:22:30;77.67;;;47.73;;
8944;SDS011;4507;40.232;29.132;2022-12-07T12:25:04;87.00;;;45.43;;
8944;SDS011;4507;40.232;29.132;2022-12-07T12:27:36;84.70;;;46.03;;
8944;SDS011;4507;40.232;29.132;2022-12-07T12:33:01;52.57;;;36.20;;
8944;SDS011;4507;40.232;29.132;2022-12-07T12:35:33;87.83;;;39.10;;
8944;SDS011;4507;40.232;29.132;2022-12-07T12:41:01;54.07;;;38.20;;
8944;SDS011;4507;40.232;29.132;2022-12-07T12:43:51;74.97;;;37.67;;
8944;SDS011;4507;40.232;29.132;2022-12-07T12:58:43;96.53;;;57.63;;
8944;SDS011;4507;40.232;29.132;2022-12-07T13:04:24;62.77;;;39.03;;
8944;SDS011;4507;40.232;29.132;2022-12-07T13:06:57;76.17;;;34.43;;
8944;SDS011;4507;40.232;29.132;2022-12-07T13:09:26;62.40;;;32.40;;
8944;SDS011;4507;40.232;29.132;2022-12-07T13:11:59;67.63;;;38.17;;
8944;SDS011;4507;40.232;29.132;2022-12-07T13:14:51;43.97;;;36.47;;
8944;SDS011;4507;40.232;29.132;2022-12-07T13:23:21;61.93;;;52.87;;
8944;SDS011;4507;40.232;29.132;2022-12-07T13:25:59;82.80;;;47.93;;
8944;SDS011;4507;40.232;29.132;2022-12-07T13:28:37;80.57;;;44.80;;
8944;SDS011;4507;40.232;29.132;2022-12-07T13:34:05;47.97;;;39.00;;
8944;SDS011;4507;40.232;29.132;2022-12-07T13:36:57;72.13;;;42.17;;
8944;SDS011;4507;40.232;29.132;2022-12-07T13:39:29;81.83;;;49.90;;
8944;SDS011;4507;40.232;29.132;2022-12-07T13:42:09;89.30;;;52.37;;
8944;SDS011;4507;40.232;29.132;2022-12-07T13:44:48;95.27;;;53.63;;
8944;SDS011;4507;40.232;29.132;2022-12-07T13:47:17;148.30;;;58.67;;
8944;SDS011;4507;40.232;29.132;2022-12-07T13:49:50;106.20;;;53.80;;
8944;SDS011;4507;40.232;29.132;2022-12-07T13:52:21;126.47;;;57.57;;
8944;SDS011;4507;40.232;29.132;2022-12-07T13:55:13;196.50;;;64.77;;
8944;SDS011;4507;40.232;29.132;2022-12-07T13:57:44;146.33;;;61.30;;
8944;SDS011;4507;40.232;29.132;2022-12-07T14:00:34;142.77;;;51.37;;
8944;SDS011;4507;40.232;29.132;2022-12-07T14:03:04;159.13;;;55.77;;
8944;SDS011;4507;40.232;29.132;2022-12-07T14:06:17;133.83;;;52.43;;
8944;SDS011;4507;40.232;29.132;2022-12-07T14:11:44;94.10;;;49.63;;
8944;SDS011;4507;40.232;29.132;2022-12-07T14:14:16;88.27;;;50.57;;
8944;SDS011;4507;40.232;29.132;2022-12-07T14:16:55;100.13;;;51.23;;
8944;SDS011;4507;40.232;29.132;2022-12-07T14:19:43;104.83;;;54.13;;
8944;SDS011;4507;40.232;29.132;2022-12-07T14:25:16;124.03;;;84.03;;
8944;SDS011;4507;40.232;29.132;2022-12-07T14:27:48;140.07;;;74.67;;
8944;SDS011;4507;40.232;29.132;2022-12-07T14:30:24;175.87;;;82.33;;
8944;SDS011;4507;40.232;29.132;2022-12-07T14:32:56;234.20;;;104.17;;
8944;SDS011;4507;40.232;29.132;2022-12-07T14:35:28;209.77;;;97.73;;
8944;SDS011;4507;40.232;29.132;2022-12-07T14:37:57;233.90;;;110.33;;
8944;SDS011;4507;40.232;29.132;2022-12-07T14:40:28;204.13;;;112.00;;
8944;SDS011;4507;40.232;29.132;2022-12-07T14:42:59;256.27;;;117.87;;
8944;SDS011;4507;40.232;29.132;2022-12-07T14:45:30;258.40;;;120.30;;
8944;SDS011;4507;40.232;29.132;2022-12-07T14:47:59;280.70;;;133.90;;
8944;SDS011;4507;40.232;29.132;2022-12-07T14:50:49;350.33;;;134.23;;
8944;SDS011;4507;40.232;29.132;2022-12-07T14:53:40;433.40;;;144.93;;
8944;SDS011;4507;40.232;29.132;2022-12-07T14:56:15;369.60;;;132.20;;
8944;SDS011;4507;40.232;29.132;2022-12-07T14:58:44;336.93;;;132.03;;
8944;SDS011;4507;40.232;29.132;2022-12-07T15:01:15;353.63;;;131.27;;
8944;SDS011;4507;40.232;29.132;2022-12-07T15:03:43;276.33;;;96.17;;
8944;SDS011;4507;40.232;29.132;2022-12-07T15:06:13;335.70;;;105.40;;
8944;SDS011;4507;40.232;29.132;2022-12-07T15:08:44;268.53;;;94.70;;
8944;SDS011;4507;40.232;29.132;2022-12-07T15:11:13;230.63;;;83.67;;
8944;SDS011;4507;40.232;29.132;2022-12-07T15:13:44;201.10;;;70.43;;
8944;SDS011;4507;40.232;29.132;2022-12-07T15:16:34;149.27;;;55.47;;
8944;SDS011;4507;40.232;29.132;2022-12-07T15:19:23;183.43;;;57.97;;
8944;SDS011;4507;40.232;29.132;2022-12-07T15:21:55;177.00;;;55.33;;
8944;SDS011;4507;40.232;29.132;2022-12-07T15:24:25;184.93;;;67.63;;
8944;SDS011;4507;40.232;29.132;2022-12-07T15:26:54;355.60;;;219.00;;
8944;SDS011;4507;40.232;29.132;2022-12-07T15:29:25;312.70;;;181.37;;
8944;SDS011;4507;40.232;29.132;2022-12-07T15:31:54;253.90;;;136.60;;
8944;SDS011;4507;40.232;29.132;2022-12-07T15:34:24;203.67;;;99.17;;
8944;SDS011;4507;40.232;29.132;2022-12-07T15:37:05;162.40;;;73.43;;
8944;SDS011;4507;40.232;29.132;2022-12-07T15:39:34;142.63;;;59.20;;
8944;SDS011;4507;40.232;29.132;2022-12-07T15:42:04;136.57;;;54.50;;
8944;SDS011;4507;40.232;29.132;2022-12-07T15:44:35;149.50;;;55.67;;
8944;SDS011;4507;40.232;29.132;2022-12-07T15:47:21;134.37;;;51.80;;
8944;SDS011;4507;40.232;29.132;2022-12-07T15:49:50;144.03;;;49.83;;
8944;SDS011;4507;40.232;29.132;2022-12-07T15:52:21;159.70;;;50.83;;
8944;SDS011;4507;40.232;29.132;2022-12-07T15:54:50;123.80;;;48.33;;
8944;SDS011;4507;40.232;29.132;2022-12-07T15:57:19;134.63;;;48.03;;